sensor_id;sensor_type;location;lat;lon;timestamp;P1;durP1;ratioP1;P2;durP2;ratioP2
2728;SDS011;1372;47.956;7.830;2023-06-24T00:00:11;4.63;;;4.10;;
2728;SDS011;1372;47.956;7.830;2023-06-24T00:02:45;4.20;;;3.90;;
2728;SDS011;1372;47.956;7.830;2023-06-24T00:05:14;5.67;;;4.03;;
2728;SDS011;1372;47.956;7.830;2023-06-24T00:07:45;4.47;;;4.07;;
2728;SDS011;1372;47.956;7.830;2023-06-24T00:10:15;4.63;;;4.13;;
2728;SDS011;1372;47.956;7.830;2023-06-24T00:12:46;4.93;;;4.53;;
2728;SDS011;1372;47.956;7.830;2023-06-24T00:15:17;6.17;;;4.20;;
2728;SDS011;1372;47.956;7.830;2023-06-24T00:17:45;4.67;;;4.20;;
2728;SDS011;1372;47.956;7.830;2023-06-24T00:20:17;4.90;;;4.30;;
2728;SDS011;1372;47.956;7.830;2023-06-24T00:22:46;6.10;;;4.60;;
2728;SDS011;1372;47.956;7.830;2023-06-24T00:25:15;3.60;;;3.30;;
2728;SDS011;1372;47.956;7.830;2023-06-24T00:27:44;4.60;;;4.20;;
2728;SDS011;1372;47.956;7.830;2023-06-24T00:30:13;4.43;;;4.00;;
2728;SDS011;1372;47.956;7.830;2023-06-24T00:32:44;4.77;;;4.37;;
2728;SDS011;1372;47.956;7.830;2023-06-24T00:35:13;4.40;;;4.00;;
2728;SDS011;1372;47.956;7.830;2023-06-24T00:37:42;5.10;;;3.80;;
2728;SDS011;1372;47.956;7.830;2023-06-24T00:40:13;5.23;;;3.87;;
2728;SDS011;1372;47.956;7.830;2023-06-24T00:42:43;4.93;;;4.43;;
2728;SDS011;1372;47.956;7.830;2023-06-24T00:45:13;4.17;;;3.87;;
2728;SDS011;1372;47.956;7.830;2023-06-24T00:47:46;7.40;;;4.23;;
2728;SDS011;1372;47.956;7.830;2023-06-24T00:50:15;4.57;;;4.13;;
2728;SDS011;1372;47.956;7.830;2023-06-24T00:52:45;4.03;;;3.73;;
2728;SDS011;1372;47.956;7.830;2023-06-24T00:55:15;8.53;;;6.57;;
2728;SDS011;1372;47.956;7.830;2023-06-24T00:57:48;4.53;;;4.13;;
2728;SDS011;1372;47.956;7.830;2023-06-24T01:00:21;4.73;;;4.33;;
2728;SDS011;1372;47.956;7.830;2023-06-24T01:02:52;4.23;;;3.83;;
2728;SDS011;1372;47.956;7.830;2023-06-24T01:05:21;4.33;;;3.97;;
2728;SDS011;1372;47.956;7.830;2023-06-24T01:07:50;4.60;;;4.20;;
2728;SDS011;1372;47.956;7.830;2023-06-24T01:10:25;5.07;;;4.67;;
2728;SDS011;1372;47.956;7.830;2023-06-24T01:12:54;4.87;;;4.47;;
2728;SDS011;1372;47.956;7.830;2023-06-24T01:15:25;5.03;;;4.40;;
2728;SDS011;1372;47.956;7.830;2023-06-24T01:17:59;5.00;;;4.60;;
2728;SDS011;1372;47.956;7.830;2023-06-24T01:20:38;5.27;;;4.47;;
2728;SDS011;1372;47.956;7.830;2023-06-24T01:30:17;4.70;;;4.30;;
2728;SDS011;1372;47.956;7.830;2023-06-24T01:33:24;5.03;;;3.93;;
2728;SDS011;1372;47.956;7.830;2023-06-24T01:36:03;4.23;;;3.93;;
2728;SDS011;1372;47.956;7.830;2023-06-24T01:38:40;6.50;;;4.13;;
2728;SDS011;1372;47.956;7.830;2023-06-24T01:41:16;4.73;;;4.10;;
2728;SDS011;1372;47.956;7.830;2023-06-24T01:43:52;4.13;;;3.73;;
2728;SDS011;1372;47.956;7.830;2023-06-24T01:46:23;5.30;;;4.03;;
2728;SDS011;1372;47.956;7.830;2023-06-24T01:48:55;4.47;;;4.07;;
2728;SDS011;1372;47.956;7.830;2023-06-24T01:51:30;4.83;;;4.33;;
2728;SDS011;1372;47.956;7.830;2023-06-24T01:54:04;4.90;;;4.50;;
2728;SDS011;1372;47.956;7.830;2023-06-24T01:56:39;4.77;;;4.37;;
2728;SDS011;1372;47.956;7.830;2023-06-24T01:59:11;4.70;;;4.23;;
2728;SDS011;1372;47.956;7.830;2023-06-24T02:01:40;4.50;;;4.10;;
2728;SDS011;1372;47.956;7.830;2023-06-24T02:04:11;6.13;;;4.63;;
2728;SDS011;1372;47.956;7.830;2023-06-24T02:06:41;4.10;;;3.80;;
2728;SDS011;1372;47.956;7.830;2023-06-24T02:09:11;4.60;;;4.10;;
2728;SDS011;1372;47.956;7.830;2023-06-24T02:11:43;5.20;;;4.80;;
2728;SDS011;1372;47.956;7.830;2023-06-24T02:14:14;4.93;;;4.43;;
2728;SDS011;1372;47.956;7.830;2023-06-24T02:16:45;3.90;;;3.50;;
2728;SDS011;1372;47.956;7.830;2023-06-24T02:19:17;5.30;;;4.80;;
2728;SDS011;1372;47.956;7.830;2023-06-24T02:21:47;4.70;;;4.30;;
2728;SDS011;1372;47.956;7.830;2023-06-24T02:24:18;5.07;;;4.57;;
2728;SDS011;1372;47.956;7.830;2023-06-24T02:26:50;5.20;;;4.70;;
2728;SDS011;1372;47.956;7.830;2023-06-24T02:29:20;4.70;;;4.30;;
2728;SDS011;1372;47.956;7.830;2023-06-24T02:31:50;5.63;;;5.13;;
2728;SDS011;1372;47.956;7.830;2023-06-24T02:34:23;5.00;;;4.50;;
2728;SDS011;1372;47.956;7.830;2023-06-24T02:36:52;4.37;;;3.70;;
2728;SDS011;1372;47.956;7.830;2023-06-24T02:39:21;5.57;;;5.07;;
2728;SDS011;1372;47.956;7.830;2023-06-24T02:41:50;4.80;;;4.40;;
2728;SDS011;1372;47.956;7.830;2023-06-24T02:44:19;5.00;;;4.60;;
2728;SDS011;1372;47.956;7.830;2023-06-24T02:46:48;6.90;;;4.17;;
2728;SDS011;1372;47.956;7.830;2023-06-24T02:49:19;5.93;;;4.53;;
2728;SDS011;1372;47.956;7.830;2023-06-24T02:51:50;5.50;;;4.53;;
2728;SDS011;1372;47.956;7.830;2023-06-24T02:54:21;4.50;;;4.10;;
2728;SDS011;1372;47.956;7.830;2023-06-24T02:56:50;5.30;;;4.27;;
2728;SDS011;1372;47.956;7.830;2023-06-24T02:59:19;4.83;;;4.43;;
2728;SDS011;1372;47.956;7.830;2023-06-24T03:01:49;13.10;;;4.37;;
2728;SDS011;1372;47.956;7.830;2023-06-24T03:04:19;4.73;;;4.33;;
2728;SDS011;1372;47.956;7.830;2023-06-24T03:06:48;5.00;;;4.50;;
2728;SDS011;1372;47.956;7.830;2023-06-24T03:09:22;4.30;;;3.90;;
2728;SDS011;1372;47.956;7.830;2023-06-24T03:11:54;6.00;;;3.90;;
2728;SDS011;1372;47.956;7.830;2023-06-24T03:14:23;5.20;;;4.80;;
2728;SDS011;1372;47.956;7.830;2023-06-24T03:16:51;4.43;;;4.03;;
2728;SDS011;1372;47.956;7.830;2023-06-24T03:19:20;5.13;;;4.63;;
2728;SDS011;1372;47.956;7.830;2023-06-24T03:21:50;5.57;;;5.07;;
2728;SDS011;1372;47.956;7.830;2023-06-24T03:24:19;4.10;;;3.77;;
2728;SDS011;1372;47.956;7.830;2023-06-24T03:26:48;4.97;;;4.23;;
2728;SDS011;1372;47.956;7.830;2023-06-24T03:29:23;5.60;;;4.20;;
2728;SDS011;1372;47.956;7.830;2023-06-24T03:31:52;5.00;;;4.50;;
2728;SDS011;1372;47.956;7.830;2023-06-24T03:34:21;5.00;;;4.50;;
2728;SDS011;1372;47.956;7.830;2023-06-24T03:36:51;3.57;;;3.27;;
2728;SDS011;1372;47.956;7.830;2023-06-24T03:39:21;4.83;;;4.27;;
2728;SDS011;1372;47.956;7.830;2023-06-24T03:41:50;4.40;;;3.63;;
2728;SDS011;1372;47.956;7.830;2023-06-24T03:44:18;4.20;;;3.90;;
2728;SDS011;1372;47.956;7.830;2023-06-24T03:46:47;5.33;;;4.10;;
2728;SDS011;1372;47.956;7.830;2023-06-24T03:49:16;6.50;;;4.50;;
2728;SDS011;1372;47.956;7.830;2023-06-24T03:51:47;5.17;;;4.67;;
2728;SDS011;1372;47.956;7.830;2023-06-24T03:54:18;4.83;;;4.43;;
2728;SDS011;1372;47.956;7.830;2023-06-24T03:56:47;4.87;;;4.47;;
2728;SDS011;1372;47.956;7.830;2023-06-24T03:59:16;6.20;;;4.50;;
2728;SDS011;1372;47.956;7.830;2023-06-24T04:01:45;4.83;;;4.43;;
2728;SDS011;1372;47.956;7.830;2023-06-24T04:04:13;4.40;;;3.97;;
2728;SDS011;1372;47.956;7.830;2023-06-24T04:06:42;4.53;;;4.13;;
2728;SDS011;1372;47.956;7.830;2023-06-24T04:09:11;4.90;;;4.40;;
2728;SDS011;1372;47.956;7.830;2023-06-24T04:11:41;5.60;;;4.57;;
2728;SDS011;1372;47.956;7.830;2023-06-24T04:14:10;4.40;;;4.00;;
2728;SDS011;1372;47.956;7.830;2023-06-24T04:16:39;4.70;;;4.20;;
2728;SDS011;1372;47.956;7.830;2023-06-24T04:19:08;5.40;;;4.90;;
2728;SDS011;1372;47.956;7.830;2023-06-24T04:21:39;5.40;;;4.37;;
2728;SDS011;1372;47.956;7.830;2023-06-24T04:24:07;4.30;;;3.90;;
2728;SDS011;1372;47.956;7.830;2023-06-24T04:26:36;4.70;;;4.20;;
2728;SDS011;1372;47.956;7.830;2023-06-24T04:29:09;4.57;;;4.17;;
2728;SDS011;1372;47.956;7.830;2023-06-24T04:31:37;10.17;;;4.20;;
2728;SDS011;1372;47.956;7.830;2023-06-24T04:34:09;4.67;;;4.20;;
2728;SDS011;1372;47.956;7.830;2023-06-24T04:36:38;5.50;;;5.00;;
2728;SDS011;1372;47.956;7.830;2023-06-24T04:39:09;5.33;;;4.27;;
2728;SDS011;1372;47.956;7.830;2023-06-24T04:41:40;5.00;;;4.60;;
2728;SDS011;1372;47.956;7.830;2023-06-24T04:44:11;5.30;;;4.80;;
2728;SDS011;1372;47.956;7.830;2023-06-24T04:46:40;5.07;;;4.67;;
2728;SDS011;1372;47.956;7.830;2023-06-24T04:49:09;6.07;;;4.70;;
2728;SDS011;1372;47.956;7.830;2023-06-24T04:51:38;5.47;;;4.63;;
2728;SDS011;1372;47.956;7.830;2023-06-24T04:54:07;4.97;;;4.10;;
2728;SDS011;1372;47.956;7.830;2023-06-24T04:56:36;4.90;;;4.50;;
2728;SDS011;1372;47.956;7.830;2023-06-24T04:59:04;4.60;;;4.20;;
2728;SDS011;1372;47.956;7.830;2023-06-24T05:01:35;4.90;;;4.40;;
2728;SDS011;1372;47.956;7.830;2023-06-24T05:04:04;5.73;;;5.17;;
2728;SDS011;1372;47.956;7.830;2023-06-24T05:06:32;6.17;;;5.00;;
2728;SDS011;1372;47.956;7.830;2023-06-24T05:09:02;5.00;;;4.60;;
2728;SDS011;1372;47.956;7.830;2023-06-24T05:11:31;5.53;;;5.03;;
2728;SDS011;1372;47.956;7.830;2023-06-24T05:13:59;5.50;;;5.00;;
2728;SDS011;1372;47.956;7.830;2023-06-24T05:16:30;4.40;;;4.00;;
2728;SDS011;1372;47.956;7.830;2023-06-24T05:19:02;5.53;;;4.60;;
2728;SDS011;1372;47.956;7.830;2023-06-24T05:21:31;5.10;;;4.60;;
2728;SDS011;1372;47.956;7.830;2023-06-24T05:24:00;4.90;;;4.50;;
2728;SDS011;1372;47.956;7.830;2023-06-24T05:26:28;5.53;;;5.03;;
2728;SDS011;1372;47.956;7.830;2023-06-24T05:28:57;5.10;;;4.60;;
2728;SDS011;1372;47.956;7.830;2023-06-24T05:31:26;5.10;;;4.70;;
2728;SDS011;1372;47.956;7.830;2023-06-24T05:33:55;5.03;;;4.63;;
2728;SDS011;1372;47.956;7.830;2023-06-24T05:36:25;6.10;;;5.50;;
2728;SDS011;1372;47.956;7.830;2023-06-24T05:38:54;5.70;;;4.77;;
2728;SDS011;1372;47.956;7.830;2023-06-24T05:41:23;5.67;;;5.17;;
2728;SDS011;1372;47.956;7.830;2023-06-24T05:44:00;5.07;;;4.67;;
2728;SDS011;1372;47.956;7.830;2023-06-24T05:46:30;4.93;;;4.53;;
2728;SDS011;1372;47.956;7.830;2023-06-24T05:48:59;5.33;;;4.83;;
2728;SDS011;1372;47.956;7.830;2023-06-24T05:51:29;5.37;;;4.87;;
2728;SDS011;1372;47.956;7.830;2023-06-24T05:53:58;4.87;;;4.47;;
2728;SDS011;1372;47.956;7.830;2023-06-24T05:56:27;7.20;;;5.07;;
2728;SDS011;1372;47.956;7.830;2023-06-24T05:58:56;5.60;;;5.10;;
2728;SDS011;1372;47.956;7.830;2023-06-24T06:01:24;5.23;;;4.73;;
2728;SDS011;1372;47.956;7.830;2023-06-24T06:03:53;6.10;;;5.60;;
2728;SDS011;1372;47.956;7.830;2023-06-24T06:06:22;6.17;;;5.57;;
2728;SDS011;1372;47.956;7.830;2023-06-24T06:08:52;6.03;;;5.43;;
2728;SDS011;1372;47.956;7.830;2023-06-24T06:11:21;5.97;;;5.47;;
2728;SDS011;1372;47.956;7.830;2023-06-24T06:13:51;5.70;;;5.20;;
2728;SDS011;1372;47.956;7.830;2023-06-24T06:16:20;5.93;;;5.33;;
2728;SDS011;1372;47.956;7.830;2023-06-24T06:18:50;6.63;;;6.13;;
2728;SDS011;1372;47.956;7.830;2023-06-24T06:21:19;6.57;;;5.47;;
2728;SDS011;1372;47.956;7.830;2023-06-24T06:23:47;6.07;;;5.53;;
2728;SDS011;1372;47.956;7.830;2023-06-24T06:26:18;8.43;;;5.70;;
2728;SDS011;1372;47.956;7.830;2023-06-24T06:28:46;7.13;;;6.30;;
2728;SDS011;1372;47.956;7.830;2023-06-24T06:31:19;5.67;;;5.17;;
2728;SDS011;1372;47.956;7.830;2023-06-24T06:33:49;6.67;;;6.00;;
2728;SDS011;1372;47.956;7.830;2023-06-24T06:36:18;6.43;;;5.40;;
2728;SDS011;1372;47.956;7.830;2023-06-24T06:38:47;6.73;;;6.17;;
2728;SDS011;1372;47.956;7.830;2023-06-24T06:41:17;6.47;;;5.83;;
2728;SDS011;1372;47.956;7.830;2023-06-24T06:43:53;6.13;;;5.63;;
2728;SDS011;1372;47.956;7.830;2023-06-24T06:46:22;6.37;;;5.77;;
2728;SDS011;1372;47.956;7.830;2023-06-24T06:48:51;6.37;;;5.77;;
2728;SDS011;1372;47.956;7.830;2023-06-24T06:51:20;7.63;;;6.10;;
2728;SDS011;1372;47.956;7.830;2023-06-24T06:53:51;5.93;;;5.33;;
2728;SDS011;1372;47.956;7.830;2023-06-24T06:56:23;6.27;;;5.73;;
2728;SDS011;1372;47.956;7.830;2023-06-24T06:58:53;5.30;;;4.90;;
2728;SDS011;1372;47.956;7.830;2023-06-24T07:01:25;5.87;;;5.37;;
2728;SDS011;1372;47.956;7.830;2023-06-24T07:03:54;6.00;;;5.50;;
2728;SDS011;1372;47.956;7.830;2023-06-24T07:06:23;5.80;;;5.30;;
2728;SDS011;1372;47.956;7.830;2023-06-24T07:08:54;5.63;;;5.13;;
2728;SDS011;1372;47.956;7.830;2023-06-24T07:11:24;5.80;;;5.30;;
2728;SDS011;1372;47.956;7.830;2023-06-24T07:13:53;5.77;;;4.93;;
2728;SDS011;1372;47.956;7.830;2023-06-24T07:16:22;6.10;;;5.57;;
2728;SDS011;1372;47.956;7.830;2023-06-24T07:18:51;6.63;;;6.03;;
2728;SDS011;1372;47.956;7.830;2023-06-24T07:21:19;5.47;;;5.03;;
2728;SDS011;1372;47.956;7.830;2023-06-24T07:23:49;5.77;;;5.30;;
2728;SDS011;1372;47.956;7.830;2023-06-24T07:26:17;5.93;;;5.43;;
2728;SDS011;1372;47.956;7.830;2023-06-24T07:28:48;6.60;;;5.90;;
2728;SDS011;1372;47.956;7.830;2023-06-24T07:31:33;6.03;;;5.53;;
2728;SDS011;1372;47.956;7.830;2023-06-24T07:34:02;5.90;;;5.40;;
2728;SDS011;1372;47.956;7.830;2023-06-24T07:36:31;6.97;;;5.80;;
2728;SDS011;1372;47.956;7.830;2023-06-24T07:39:00;6.90;;;6.20;;
2728;SDS011;1372;47.956;7.830;2023-06-24T07:41:29;6.43;;;5.83;;
2728;SDS011;1372;47.956;7.830;2023-06-24T07:43:59;7.27;;;5.70;;
2728;SDS011;1372;47.956;7.830;2023-06-24T07:46:28;6.60;;;6.00;;
2728;SDS011;1372;47.956;7.830;2023-06-24T07:48:57;6.20;;;5.60;;
2728;SDS011;1372;47.956;7.830;2023-06-24T07:51:26;6.37;;;5.67;;
2728;SDS011;1372;47.956;7.830;2023-06-24T07:53:55;6.13;;;5.63;;
2728;SDS011;1372;47.956;7.830;2023-06-24T07:56:24;5.17;;;4.77;;
2728;SDS011;1372;47.956;7.830;2023-06-24T07:58:53;5.63;;;5.13;;
2728;SDS011;1372;47.956;7.830;2023-06-24T08:01:24;6.33;;;5.63;;
2728;SDS011;1372;47.956;7.830;2023-06-24T08:03:56;5.57;;;5.13;;
2728;SDS011;1372;47.956;7.830;2023-06-24T08:06:26;4.80;;;4.47;;
2728;SDS011;1372;47.956;7.830;2023-06-24T08:08:54;5.13;;;4.63;;
2728;SDS011;1372;47.956;7.830;2023-06-24T08:11:29;5.80;;;5.20;;
2728;SDS011;1372;47.956;7.830;2023-06-24T08:13:59;5.87;;;5.33;;
2728;SDS011;1372;47.956;7.830;2023-06-24T08:16:30;6.03;;;4.57;;
2728;SDS011;1372;47.956;7.830;2023-06-24T08:19:01;5.43;;;4.87;;
2728;SDS011;1372;47.956;7.830;2023-06-24T08:21:29;5.60;;;5.10;;
2728;SDS011;1372;47.956;7.830;2023-06-24T08:23:59;5.80;;;5.30;;
2728;SDS011;1372;47.956;7.830;2023-06-24T08:26:28;6.03;;;5.57;;
2728;SDS011;1372;47.956;7.830;2023-06-24T08:28:57;5.33;;;4.70;;
2728;SDS011;1372;47.956;7.830;2023-06-24T08:31:30;5.87;;;5.37;;
2728;SDS011;1372;47.956;7.830;2023-06-24T08:33:59;5.80;;;5.20;;
2728;SDS011;1372;47.956;7.830;2023-06-24T08:36:29;5.73;;;5.23;;
2728;SDS011;1372;47.956;7.830;2023-06-24T08:38:58;5.57;;;5.07;;
2728;SDS011;1372;47.956;7.830;2023-06-24T08:41:27;5.73;;;5.23;;
2728;SDS011;1372;47.956;7.830;2023-06-24T08:43:56;5.40;;;5.00;;
2728;SDS011;1372;47.956;7.830;2023-06-24T08:46:26;6.10;;;5.40;;
2728;SDS011;1372;47.956;7.830;2023-06-24T08:49:02;5.10;;;4.60;;
2728;SDS011;1372;47.956;7.830;2023-06-24T08:51:39;5.40;;;4.90;;
2728;SDS011;1372;47.956;7.830;2023-06-24T08:54:13;5.57;;;5.07;;
2728;SDS011;1372;47.956;7.830;2023-06-24T08:56:43;5.47;;;4.97;;
2728;SDS011;1372;47.956;7.830;2023-06-24T08:59:12;5.40;;;5.00;;
2728;SDS011;1372;47.956;7.830;2023-06-24T09:01:45;5.70;;;5.20;;
2728;SDS011;1372;47.956;7.830;2023-06-24T09:04:19;5.70;;;5.07;;
2728;SDS011;1372;47.956;7.830;2023-06-24T09:06:48;5.30;;;4.80;;
2728;SDS011;1372;47.956;7.830;2023-06-24T09:09:17;6.00;;;4.90;;
2728;SDS011;1372;47.956;7.830;2023-06-24T09:11:56;5.43;;;4.97;;
2728;SDS011;1372;47.956;7.830;2023-06-24T09:14:28;4.90;;;4.50;;
2728;SDS011;1372;47.956;7.830;2023-06-24T09:16:58;7.10;;;5.17;;
2728;SDS011;1372;47.956;7.830;2023-06-24T09:19:31;5.33;;;4.93;;
2728;SDS011;1372;47.956;7.830;2023-06-24T09:22:03;5.23;;;4.73;;
2728;SDS011;1372;47.956;7.830;2023-06-24T09:24:33;5.30;;;4.90;;
2728;SDS011;1372;47.956;7.830;2023-06-24T09:27:04;5.30;;;4.90;;
2728;SDS011;1372;47.956;7.830;2023-06-24T09:29:34;5.87;;;5.37;;
2728;SDS011;1372;47.956;7.830;2023-06-24T09:32:03;5.47;;;4.97;;
2728;SDS011;1372;47.956;7.830;2023-06-24T09:34:35;5.87;;;5.30;;
2728;SDS011;1372;47.956;7.830;2023-06-24T09:37:04;6.80;;;4.93;;
2728;SDS011;1372;47.956;7.830;2023-06-24T09:39:37;5.63;;;5.13;;
2728;SDS011;1372;47.956;7.830;2023-06-24T09:42:08;5.20;;;4.70;;
2728;SDS011;1372;47.956;7.830;2023-06-24T09:44:38;5.20;;;4.73;;
2728;SDS011;1372;47.956;7.830;2023-06-24T09:47:07;6.53;;;5.70;;
2728;SDS011;1372;47.956;7.830;2023-06-24T09:49:38;5.53;;;5.13;;
2728;SDS011;1372;47.956;7.830;2023-06-24T09:52:07;5.10;;;4.70;;
2728;SDS011;1372;47.956;7.830;2023-06-24T09:54:36;5.60;;;5.10;;
2728;SDS011;1372;47.956;7.830;2023-06-24T09:57:07;5.97;;;5.33;;
2728;SDS011;1372;47.956;7.830;2023-06-24T09:59:38;5.23;;;4.83;;
2728;SDS011;1372;47.956;7.830;2023-06-24T10:02:13;5.63;;;5.13;;
2728;SDS011;1372;47.956;7.830;2023-06-24T10:04:45;5.40;;;5.00;;
2728;SDS011;1372;47.956;7.830;2023-06-24T10:07:15;6.20;;;5.60;;
2728;SDS011;1372;47.956;7.830;2023-06-24T10:09:44;6.17;;;5.57;;
2728;SDS011;1372;47.956;7.830;2023-06-24T10:12:13;5.40;;;4.77;;
2728;SDS011;1372;47.956;7.830;2023-06-24T10:14:42;5.73;;;5.20;;
2728;SDS011;1372;47.956;7.830;2023-06-24T10:17:11;6.37;;;5.87;;
2728;SDS011;1372;47.956;7.830;2023-06-24T10:19:40;5.37;;;4.97;;
2728;SDS011;1372;47.956;7.830;2023-06-24T10:22:11;5.40;;;5.00;;
2728;SDS011;1372;47.956;7.830;2023-06-24T10:24:40;5.30;;;4.90;;
2728;SDS011;1372;47.956;7.830;2023-06-24T10:27:13;5.50;;;5.00;;
2728;SDS011;1372;47.956;7.830;2023-06-24T10:29:44;5.10;;;4.70;;
2728;SDS011;1372;47.956;7.830;2023-06-24T10:32:15;4.80;;;4.47;;
2728;SDS011;1372;47.956;7.830;2023-06-24T10:34:46;4.93;;;4.43;;
2728;SDS011;1372;47.956;7.830;2023-06-24T10:37:24;4.10;;;3.70;;
2728;SDS011;1372;47.956;7.830;2023-06-24T10:39:54;4.63;;;4.33;;
2728;SDS011;1372;47.956;7.830;2023-06-24T10:42:36;4.60;;;4.20;;
2728;SDS011;1372;47.956;7.830;2023-06-24T10:45:16;5.20;;;4.77;;
2728;SDS011;1372;47.956;7.830;2023-06-24T10:47:48;4.77;;;4.40;;
2728;SDS011;1372;47.956;7.830;2023-06-24T10:50:19;4.93;;;4.53;;
2728;SDS011;1372;47.956;7.830;2023-06-24T10:52:52;4.90;;;4.50;;
2728;SDS011;1372;47.956;7.830;2023-06-24T10:55:23;5.20;;;4.80;;
2728;SDS011;1372;47.956;7.830;2023-06-24T10:57:53;5.30;;;4.80;;
2728;SDS011;1372;47.956;7.830;2023-06-24T11:00:22;4.83;;;4.43;;
2728;SDS011;1372;47.956;7.830;2023-06-24T11:02:50;4.80;;;4.40;;
2728;SDS011;1372;47.956;7.830;2023-06-24T11:05:19;5.07;;;4.67;;
2728;SDS011;1372;47.956;7.830;2023-06-24T11:07:48;4.90;;;4.50;;
2728;SDS011;1372;47.956;7.830;2023-06-24T11:10:18;4.97;;;4.47;;
2728;SDS011;1372;47.956;7.830;2023-06-24T11:12:47;4.30;;;4.00;;
2728;SDS011;1372;47.956;7.830;2023-06-24T11:15:19;5.53;;;5.03;;
2728;SDS011;1372;47.956;7.830;2023-06-24T11:17:50;8.90;;;5.00;;
2728;SDS011;1372;47.956;7.830;2023-06-24T11:20:19;5.40;;;4.90;;
2728;SDS011;1372;47.956;7.830;2023-06-24T11:22:48;5.67;;;5.20;;
2728;SDS011;1372;47.956;7.830;2023-06-24T11:25:19;5.27;;;4.77;;
2728;SDS011;1372;47.956;7.830;2023-06-24T11:27:49;5.17;;;4.70;;
2728;SDS011;1372;47.956;7.830;2023-06-24T11:30:20;5.10;;;4.70;;
2728;SDS011;1372;47.956;7.830;2023-06-24T11:32:49;4.60;;;4.30;;
2728;SDS011;1372;47.956;7.830;2023-06-24T11:35:17;4.93;;;4.53;;
2728;SDS011;1372;47.956;7.830;2023-06-24T11:37:47;5.47;;;4.53;;
2728;SDS011;1372;47.956;7.830;2023-06-24T11:40:16;6.07;;;5.57;;
2728;SDS011;1372;47.956;7.830;2023-06-24T11:42:48;5.03;;;4.63;;
2728;SDS011;1372;47.956;7.830;2023-06-24T11:45:19;5.50;;;5.00;;
2728;SDS011;1372;47.956;7.830;2023-06-24T11:47:50;5.23;;;4.40;;
2728;SDS011;1372;47.956;7.830;2023-06-24T11:50:25;4.93;;;4.50;;
2728;SDS011;1372;47.956;7.830;2023-06-24T11:52:54;4.40;;;4.10;;
2728;SDS011;1372;47.956;7.830;2023-06-24T11:55:25;4.77;;;4.30;;
2728;SDS011;1372;47.956;7.830;2023-06-24T11:57:58;4.13;;;3.83;;
2728;SDS011;1372;47.956;7.830;2023-06-24T12:00:29;4.07;;;3.77;;
2728;SDS011;1372;47.956;7.830;2023-06-24T12:03:04;4.23;;;4.00;;
2728;SDS011;1372;47.956;7.830;2023-06-24T12:05:37;4.70;;;3.93;;
2728;SDS011;1372;47.956;7.830;2023-06-24T12:08:12;5.03;;;4.63;;
2728;SDS011;1372;47.956;7.830;2023-06-24T12:10:44;4.60;;;4.30;;
2728;SDS011;1372;47.956;7.830;2023-06-24T12:13:14;5.90;;;4.53;;
2728;SDS011;1372;47.956;7.830;2023-06-24T12:15:43;4.20;;;3.90;;
2728;SDS011;1372;47.956;7.830;2023-06-24T12:18:12;4.17;;;3.77;;
2728;SDS011;1372;47.956;7.830;2023-06-24T12:20:41;3.73;;;3.43;;
2728;SDS011;1372;47.956;7.830;2023-06-24T12:23:10;4.40;;;4.00;;
2728;SDS011;1372;47.956;7.830;2023-06-24T12:25:39;4.10;;;3.80;;
2728;SDS011;1372;47.956;7.830;2023-06-24T12:28:11;4.43;;;4.03;;
2728;SDS011;1372;47.956;7.830;2023-06-24T12:30:39;4.70;;;4.40;;
2728;SDS011;1372;47.956;7.830;2023-06-24T12:33:08;5.53;;;3.60;;
2728;SDS011;1372;47.956;7.830;2023-06-24T12:35:38;4.43;;;4.03;;
2728;SDS011;1372;47.956;7.830;2023-06-24T12:38:09;5.93;;;4.20;;
2728;SDS011;1372;47.956;7.830;2023-06-24T12:40:39;4.40;;;4.10;;
2728;SDS011;1372;47.956;7.830;2023-06-24T12:43:08;3.70;;;3.40;;
2728;SDS011;1372;47.956;7.830;2023-06-24T12:45:39;3.90;;;3.60;;
2728;SDS011;1372;47.956;7.830;2023-06-24T12:48:12;3.90;;;3.50;;
2728;SDS011;1372;47.956;7.830;2023-06-24T12:50:42;3.53;;;3.33;;
2728;SDS011;1372;47.956;7.830;2023-06-24T12:53:11;3.67;;;3.40;;
2728;SDS011;1372;47.956;7.830;2023-06-24T12:55:40;4.87;;;4.47;;
2728;SDS011;1372;47.956;7.830;2023-06-24T12:58:12;3.77;;;3.47;;
2728;SDS011;1372;47.956;7.830;2023-06-24T13:00:42;3.70;;;3.40;;
2728;SDS011;1372;47.956;7.830;2023-06-24T13:03:11;3.83;;;3.53;;
2728;SDS011;1372;47.956;7.830;2023-06-24T13:05:40;4.23;;;3.93;;
2728;SDS011;1372;47.956;7.830;2023-06-24T13:08:13;3.90;;;3.60;;
2728;SDS011;1372;47.956;7.830;2023-06-24T13:10:42;3.77;;;3.47;;
2728;SDS011;1372;47.956;7.830;2023-06-24T13:13:13;3.97;;;3.67;;
2728;SDS011;1372;47.956;7.830;2023-06-24T13:15:42;3.60;;;3.30;;
2728;SDS011;1372;47.956;7.830;2023-06-24T13:18:11;3.20;;;3.00;;
2728;SDS011;1372;47.956;7.830;2023-06-24T13:20:42;3.63;;;3.33;;
2728;SDS011;1372;47.956;7.830;2023-06-24T13:23:11;4.50;;;4.03;;
2728;SDS011;1372;47.956;7.830;2023-06-24T13:25:40;3.83;;;3.60;;
2728;SDS011;1372;47.956;7.830;2023-06-24T13:28:09;3.57;;;3.27;;
2728;SDS011;1372;47.956;7.830;2023-06-24T13:30:39;4.07;;;3.60;;
2728;SDS011;1372;47.956;7.830;2023-06-24T13:33:09;4.70;;;4.10;;
2728;SDS011;1372;47.956;7.830;2023-06-24T13:35:38;3.70;;;3.40;;
2728;SDS011;1372;47.956;7.830;2023-06-24T13:38:07;4.30;;;3.90;;
2728;SDS011;1372;47.956;7.830;2023-06-24T13:40:36;4.17;;;3.80;;
2728;SDS011;1372;47.956;7.830;2023-06-24T13:43:05;4.10;;;3.80;;
2728;SDS011;1372;47.956;7.830;2023-06-24T13:45:34;3.80;;;3.50;;
2728;SDS011;1372;47.956;7.830;2023-06-24T13:48:05;3.50;;;3.20;;
2728;SDS011;1372;47.956;7.830;2023-06-24T13:50:34;3.30;;;3.07;;
2728;SDS011;1372;47.956;7.830;2023-06-24T13:53:03;4.07;;;3.67;;
2728;SDS011;1372;47.956;7.830;2023-06-24T13:55:32;4.83;;;4.43;;
2728;SDS011;1372;47.956;7.830;2023-06-24T13:58:02;3.73;;;3.50;;
2728;SDS011;1372;47.956;7.830;2023-06-24T14:00:32;3.53;;;3.33;;
2728;SDS011;1372;47.956;7.830;2023-06-24T14:03:02;3.63;;;3.33;;
2728;SDS011;1372;47.956;7.830;2023-06-24T14:05:32;3.97;;;3.67;;
2728;SDS011;1372;47.956;7.830;2023-06-24T14:08:01;4.13;;;3.77;;
2728;SDS011;1372;47.956;7.830;2023-06-24T14:10:31;3.83;;;3.57;;
2728;SDS011;1372;47.956;7.830;2023-06-24T14:13:00;3.90;;;3.60;;
2728;SDS011;1372;47.956;7.830;2023-06-24T14:15:29;3.40;;;3.10;;
2728;SDS011;1372;47.956;7.830;2023-06-24T14:17:58;3.60;;;3.30;;
2728;SDS011;1372;47.956;7.830;2023-06-24T14:20:27;3.70;;;3.40;;
2728;SDS011;1372;47.956;7.830;2023-06-24T14:22:57;3.60;;;3.40;;
2728;SDS011;1372;47.956;7.830;2023-06-24T14:25:26;4.33;;;4.03;;
2728;SDS011;1372;47.956;7.830;2023-06-24T14:27:55;3.40;;;3.20;;
2728;SDS011;1372;47.956;7.830;2023-06-24T14:30:24;4.13;;;3.83;;
2728;SDS011;1372;47.956;7.830;2023-06-24T14:32:53;3.97;;;3.67;;
2728;SDS011;1372;47.956;7.830;2023-06-24T14:35:22;4.07;;;3.27;;
2728;SDS011;1372;47.956;7.830;2023-06-24T14:37:52;3.17;;;2.97;;
2728;SDS011;1372;47.956;7.830;2023-06-24T14:40:22;4.00;;;3.70;;
2728;SDS011;1372;47.956;7.830;2023-06-24T14:42:51;3.33;;;3.03;;
2728;SDS011;1372;47.956;7.830;2023-06-24T14:45:20;4.40;;;3.53;;
2728;SDS011;1372;47.956;7.830;2023-06-24T14:47:51;3.37;;;3.10;;
2728;SDS011;1372;47.956;7.830;2023-06-24T14:50:20;3.63;;;3.43;;
2728;SDS011;1372;47.956;7.830;2023-06-24T14:52:51;3.73;;;3.43;;
2728;SDS011;1372;47.956;7.830;2023-06-24T14:55:20;4.20;;;3.87;;
2728;SDS011;1372;47.956;7.830;2023-06-24T14:57:51;4.10;;;3.80;;
2728;SDS011;1372;47.956;7.830;2023-06-24T15:00:20;4.30;;;3.87;;
2728;SDS011;1372;47.956;7.830;2023-06-24T15:02:49;4.17;;;3.60;;
2728;SDS011;1372;47.956;7.830;2023-06-24T15:05:18;3.60;;;3.30;;
2728;SDS011;1372;47.956;7.830;2023-06-24T15:07:46;3.90;;;3.60;;
2728;SDS011;1372;47.956;7.830;2023-06-24T15:10:15;3.73;;;3.53;;
2728;SDS011;1372;47.956;7.830;2023-06-24T15:12:45;3.60;;;3.30;;
2728;SDS011;1372;47.956;7.830;2023-06-24T15:15:14;3.00;;;2.80;;
2728;SDS011;1372;47.956;7.830;2023-06-24T15:17:43;3.93;;;3.63;;
2728;SDS011;1372;47.956;7.830;2023-06-24T15:20:12;3.93;;;3.53;;
2728;SDS011;1372;47.956;7.830;2023-06-24T15:22:41;3.37;;;3.17;;
2728;SDS011;1372;47.956;7.830;2023-06-24T15:25:10;5.40;;;3.30;;
2728;SDS011;1372;47.956;7.830;2023-06-24T15:27:39;3.47;;;3.17;;
2728;SDS011;1372;47.956;7.830;2023-06-24T15:30:09;3.00;;;2.80;;
2728;SDS011;1372;47.956;7.830;2023-06-24T15:32:39;3.80;;;3.50;;
2728;SDS011;1372;47.956;7.830;2023-06-24T15:35:09;3.47;;;3.27;;
2728;SDS011;1372;47.956;7.830;2023-06-24T15:37:38;3.53;;;3.23;;
2728;SDS011;1372;47.956;7.830;2023-06-24T15:40:07;3.30;;;3.03;;